• Join FlightAware (Why Join?)
  • Login
  • US Flag 
07:59AM EDT


 

Airport Tracker/Info


-or-


 

Live Flight TrackerFlight Track Log ✈ CTL78 ✈ 12-Jul-2013 ✈ KBKL - KPTK

Flight Track Log - Related Links

Times and Time Zones

All times are in EDT time to prevent confusion due to time zone crossing. See the CTL78 flight status page for this flight to view local times or setup timezone preferences in your user account.

Time Position Orientation Groundspeed Altitude Reporting Facility
EDT Latitude Longitude Course Direction KTS MPH feet Rate Location/Type
09:55PM 41.9664 -83.3367 115° Southeast 161 185 4,000  Level Cleveland Center
09:56PM 41.9469 -83.2800 115° Southeast 161 185 4,100  Climbing Cleveland Center
09:57PM 41.9319 -83.2097 106° East 157 181 4,100  Level Cleveland Center
09:58PM 41.9186 -83.1589 109° East 158 182 4,200 300 Climbing Cleveland Center
09:59PM 41.9011 -83.0939 110° East 146 168 4,800 360 Climbing Cleveland Center
10:00PM 41.8975 -83.0744 104° East 147 169 4,900 -60 Climbing Cleveland Center
10:02PM 41.9359 -83.0915 342° North  Level Estimated
10:09PM 42.1129 -83.1706 342° North  Level Estimated
10:10PM 42.1382 -83.1819 342° North  Level Estimated
10:11PM 42.1635 -83.1933 342° North  Level Estimated
10:12PM 42.1887 -83.2046 342° North  Level Estimated
10:13PM 42.2140 -83.2160 342° North  Level Estimated
10:14PM 42.2393 -83.2273 342° North  Level Estimated
10:15PM 42.2646 -83.2387 342° North  Level Estimated
10:16PM 42.2899 -83.2501 342° North  Level Estimated
10:17PM 42.3151 -83.2615 342° North  Level Estimated
10:18PM 42.3404 -83.2729 342° North  Level Estimated
10:19PM 42.3657 -83.2843 342° North  Level Estimated
10:20PM 42.3910 -83.2957 342° North  Level Estimated
10:21PM 42.4162 -83.3072 342° North  Level Estimated
10:22PM 42.4415 -83.3186 342° North  Level Estimated
10:23PM 42.4668 -83.3300 342° North  Level Estimated
10:24PM 42.4921 -83.3415 342° North  Level Estimated
10:25PM 42.5173 -83.3530 342° North  Level Estimated
10:26PM 42.5426 -83.3645 341° North  Level Estimated
10:27PM 42.5679 -83.3760 341° North  Level Estimated
10:28PM 42.5931 -83.3875 341° North  Level Estimated
10:29PM 42.6184 -83.3990 341° North  Level Estimated
10:30PM 42.6437 -83.4105 341° North  Level Estimated
10:31PM 42.6656 -83.4205 341° North  Level Estimated
10:32PM 42.6656 -83.4205 140° Southeast  Level Estimated
10:33PM 42.6656 -83.4205 140° Southeast  Level Estimated
10:34PM 42.6656 -83.4205 140° Southeast  Level Estimated
10:35PM 42.6656 -83.4205 140° Southeast  Level Estimated
10:36PM 42.6656 -83.4205 140° Southeast  Level Estimated
10:37PM 42.6656 -83.4205 140° Southeast  Level Estimated
10:38PM 42.6656 -83.4205 140° Southeast  Level Estimated
10:39PM 42.6656 -83.4205 140° Southeast  Level Estimated
10:40PM 42.6656 -83.4205 140° Southeast  Level Estimated
10:41PM 42.6656 -83.4205 140° Southeast  Level Estimated
10:42PM 42.6656 -83.4205 140° Southeast  Level Estimated
10:43PM 42.6656 -83.4205 140° Southeast  Level Estimated
10:44PM 42.6656 -83.4205 140° Southeast  Level Estimated
10:45PM 42.6656 -83.4205 140° Southeast  Level Estimated
10:46PM 42.6656 -83.4205 140° Southeast  Level Estimated
10:46PM 41.5833 -81.6992 339° North 156 180 2,100  Level Cleveland Center
10:47PM 42.6656 -83.4205 140° Southeast  Level Estimated
10:47PM 41.6122 -81.7469 309° West 176 203 2,800  Level Cleveland Center
10:48PM 42.6656 -83.4205 140° Southeast  Level Estimated
10:48PM 41.6303 -81.8139 290° West 178 205 3,300  Level Cleveland Center
10:49PM 42.6656 -83.4205 140° Southeast  Level Estimated
10:49PM 41.6461 -81.8753 289° West 174 200 3,800  Level Cleveland Center
10:50PM 42.6656 -83.4205 140° Southeast  Level Estimated
10:50PM 41.6642 -81.9450 289° West 179 206 4,200  Level Cleveland Center
10:51PM 41.6822 -82.0067 291° West 173 199 4,700 420 Climbing Cleveland Center
10:52PM 41.7003 -82.0569 296° West 173 199 5,100 360 Climbing Cleveland Center
10:53PM 41.7183 -82.1242 290° West 175 201 5,500 420 Climbing Cleveland Center
10:54PM 41.7361 -82.1858 291° West 174 200 6,000 300 Climbing Cleveland Center
10:55PM 41.7519 -82.2447 290° West 177 204 6,100  Climbing Cleveland Center
10:56PM 41.7678 -82.3092 288° West 187 215 6,100 -60 Level Cleveland Center
10:57PM 41.7811 -82.3764 285° West 185 213 6,000 -60 Descending Cleveland Center
10:58PM 41.8031 -82.4522 291° West 188 216 6,000  Level Cleveland Center
10:59PM 41.8144 -82.5083 285° West 186 214 6,000  Level Cleveland Center
11:00PM 41.8303 -82.5700 289° West 186 214 6,100  Climbing Cleveland Center
11:01PM 41.8497 -82.6375 291° West 189 217 6,000 -60 Descending Cleveland Center
11:02PM 41.8972 -82.6642 337° Northwest 172 198 6,000  Level Cleveland Center
11:03PM 41.9489 -82.6883 341° North 177 204 6,000  Level Cleveland Center
11:04PM 41.9925 -82.7064 343° North 176 203 6,100  Climbing Cleveland Center
11:05PM 42.0358 -82.7303 338° Northwest 176 203 6,000 -60 Descending Cleveland Center
11:06PM 42.0769 -82.7511 339° North 177 204 6,000  Level Cleveland Center
11:07PM 42.1183 -82.7750 337° Northwest 176 203 6,100  Climbing Cleveland Center
11:08PM 42.1658 -82.7964 342° North 176 203 6,000 -60 Descending Cleveland Center
11:09PM 42.2133 -82.8203 340° North 178 205 6,000  Level Cleveland Center
11:10PM 42.2544 -82.8414 339° North 178 205 6,000  Level Cleveland Center
11:11PM 42.2933 -82.8906 317° Northwest 181 208 6,000  Level Cleveland Center
11:12PM 42.3278 -82.9394 314° West 181 208 6,000  Level Cleveland Center
11:13PM 42.3683 -82.9889 318° Northwest 180 207 6,000  Level Cleveland Center
11:14PM 42.4131 -83.0411 319° Northwest 178 205 6,100 -300 Climbing Cleveland Center
11:15PM 42.4494 -83.0961 312° West 197 227 5,400 -780 Descending Cleveland Center
11:16PM 42.4917 -83.1597 312° West 193 222 4,400 -840 Descending Cleveland Center
11:17PM 42.5261 -83.2119 312° West 192 221 3,700 -720 Descending Cleveland Center
11:18PM 42.5664 -83.2700 313° West 195 224 3,000 -660 Descending Cleveland Center
11:19PM 42.5928 -83.3019 318° Northwest 186 214 2,600 -600 Descending Cleveland Center
11:20PM 42.6333 -83.3461 321° Northwest 185 213 2,000 -600 Descending Cleveland Center
11:22PM 42.6500 -83.4167 304° West  Level FlightAware Approximate
11:29PM 42.6656 -83.4205 304° West  Level Estimated
11:30PM 42.6656 -83.4205 304° West  Level Estimated
11:31PM 42.6656 -83.4205 304° West  Level Estimated